| time (UTC) | temp F | wind direction | speed MPH | gust MPH | rain 1hr in | rain 24hr in | rain mn in | humidity % | barometer mb |
| 20260905174554 | 75 | 298 | 0.0 | 5.0 | 0.00 | 0.00 | 0.00 | 38 | 1008.2 |
| 20260905173112 | 74 | 359 | 1.0 | 3.0 | 0.00 | 0.00 | 0.00 | 38 | 1008.3 |
| 20260905171554 | 73 | 74 | 1.0 | 5.0 | 0.00 | 0.00 | 0.00 | 35 | 1008.3 |
| 20260905170148 | 73 | 328 | 1.0 | 4.0 | 0.00 | 0.00 | 0.00 | 35 | 1008.5 |
| 20260905164547 | 73 | 244 | 0.0 | 4.0 | 0.00 | 0.00 | 0.00 | 36 | 1008.4 |
| 20260905163045 | 73 | 255 | 0.0 | 2.0 | 0.00 | 0.00 | 0.00 | 37 | 1008.3 |
| 20260905161526 | 72 | 281 | 0.0 | 4.0 | 0.00 | 0.00 | 0.00 | 37 | 1008.4 |
| 20260905160044 | 72 | 299 | 1.0 | 6.0 | 0.00 | 0.00 | 0.00 | 39 | 1008.5 |
| 20260905154508 | 71 | 356 | 0.0 | 3.0 | 0.00 | 0.00 | 0.00 | 38 | 1008.4 |
| 20260905153008 | 71 | 342 | 1.0 | 3.0 | 0.00 | 0.00 | 0.00 | 38 | 1008.5 |
| 20260905151506 | 71 | 349 | 0.0 | 2.0 | 0.00 | 0.00 | 0.00 | 38 | 1008.6 |
| 20260905150004 | 70 | 349 | 0.0 | 2.0 | 0.00 | 0.00 | 0.00 | 38 | 1008.5 |
| 20260905144501 | 69 | 321 | 0.0 | 3.0 | 0.00 | 0.00 | 0.00 | 39 | 1008.6 |
| 20260905143159 | 69 | 269 | 0.0 | 4.0 | 0.00 | 0.00 | 0.00 | 39 | 1008.4 |
| 20260905141526 | 68 | 349 | 1.0 | 4.0 | 0.00 | 0.00 | 0.00 | 40 | 1008.4 |
| 20260905140024 | 67 | 18 | 1.0 | 7.0 | 0.00 | 0.00 | 0.00 | 42 | 1008.6 |
| 20260905134523 | 68 | 280 | 0.0 | 4.0 | 0.00 | 0.00 | 0.00 | 43 | 1008.6 |
| 20260905131552 | 67 | 300 | 0.0 | 1.0 | 0.00 | 0.00 | 0.00 | 43 | 1008.8 |
| 20260905130051 | 66 | 288 | 0.0 | 0.0 | 0.00 | 0.00 | 0.00 | 44 | 1008.8 |
| 20260905124554 | 66 | 288 | 0.0 | 1.0 | 0.00 | 0.00 | 0.00 | 43 | 1008.9 |
| 20260905123148 | 64 | 276 | 0.0 | 1.0 | 0.00 | 0.00 | 0.00 | 43 | 1008.9 |
| 20260905121523 | 64 | 269 | 0.0 | 1.0 | 0.00 | 0.00 | 0.00 | 42 | 1008.7 |
| 20260905120036 | 62 | 319 | 0.0 | 1.0 | 0.00 | 0.00 | 0.00 | 43 | 1008.8 |
| 20260905114504 | 61 | 256 | 0.0 | 1.0 | 0.00 | 0.00 | 0.00 | 45 | 1008.5 |
| 20260905113003 | 60 | 219 | 0.0 | 0.0 | 0.00 | 0.00 | 0.00 | 44 | 1008.3 |
| 20260905111627 | 59 | 228 | 0.0 | 0.0 | 0.00 | 0.00 | 0.00 | 43 | 1008.2 |
| 20260905110041 | 59 | 333 | 0.0 | 0.0 | 0.00 | 0.00 | 0.00 | 39 | 1008.1 |
| 20260905104522 | 59 | 333 | 0.0 | 0.0 | 0.00 | 0.00 | 0.00 | 37 | 1008.0 |
| 20260905103028 | 60 | 333 | 0.0 | 0.0 | 0.00 | 0.00 | 0.00 | 37 | 1007.9 |
| 20260905101505 | 60 | 333 | 0.0 | 0.0 | 0.00 | 0.00 | 0.00 | 44 | 1007.8 |
| 20260905100000 | 61 | 333 | 0.0 | 0.0 | 0.00 | 0.00 | 0.00 | 49 | 1007.7 |
| 20260905094559 | 61 | 333 | 0.0 | 0.0 | 0.00 | 0.00 | 0.00 | 51 | 1007.7 |
| 20260905093117 | 61 | 333 | 0.0 | 0.0 | 0.00 | 0.00 | 0.00 | 52 | 1007.7 |
| 20260905091558 | 62 | 333 | 0.0 | 0.0 | 0.00 | 0.00 | 0.00 | 53 | 1007.6 |
| 20260905090052 | 62 | 339 | 0.0 | 0.0 | 0.00 | 0.03 | 0.00 | 56 | 1007.6 |
| 20260905084551 | 63 | 340 | 0.0 | 1.0 | 0.00 | 0.03 | 0.00 | 57 | 1007.7 |
| 20260905083047 | 64 | 351 | 0.0 | 2.0 | 0.00 | 0.03 | 0.00 | 56 | 1007.7 |
| 20260905081530 | 64 | 311 | 0.0 | 2.0 | 0.00 | 0.03 | 0.00 | 56 | 1007.7 |
| 20260905080032 | 64 | 310 | 0.0 | 1.0 | 0.00 | 0.28 | 0.03 | 56 | 1007.7 |
| 20260905074510 | 64 | 347 | 0.0 | 3.0 | 0.00 | 0.28 | 0.03 | 56 | 1007.7 |
| 20260905073009 | 65 | 327 | 0.0 | 1.0 | 0.00 | 0.28 | 0.03 | 55 | 1007.6 |
| 20260905071550 | 65 | 358 | 0.0 | 2.0 | 0.00 | 0.28 | 0.03 | 54 | 1007.6 |
| 20260905070055 | 66 | 358 | 0.0 | 2.0 | 0.00 | 0.31 | 0.03 | 53 | 1007.8 |
| 20260905064545 | 66 | 359 | 0.0 | 3.0 | 0.00 | 0.31 | 0.03 | 52 | 1007.8 |
| 20260905063033 | 66 | 326 | 1.0 | 3.0 | 0.00 | 0.31 | 0.03 | 51 | 1007.8 |
| 20260905061521 | 66 | 333 | 0.0 | 3.0 | 0.00 | 0.31 | 0.03 | 51 | 1008.0 |
| 20260905060023 | 65 | 316 | 0.0 | 3.0 | 0.00 | 0.32 | 0.03 | 52 | 1008.1 |
| 20260905054532 | 65 | 310 | 0.0 | 4.0 | 0.00 | 0.32 | 0.03 | 53 | 1008.4 |
| 20260905053020 | 65 | 313 | 0.0 | 2.0 | 0.00 | 0.32 | 0.03 | 48 | 1008.5 |
| 20260905051532 | 63 | 316 | 0.0 | 1.0 | 0.00 | 0.32 | 0.03 | 41 | 1008.6 |
| 20260905050018 | 62 | 316 | 0.0 | 0.0 | 0.00 | 0.32 | 0.03 | 43 | 1008.8 |
| 20260905044518 | 62 | 317 | 0.0 | 0.0 | 0.00 | 0.32 | 0.03 | 43 | 1008.9 |
| 20260905043017 | 62 | 317 | 0.0 | 0.0 | 0.00 | 0.32 | 0.03 | 43 | 1009.0 |
| 20260905041602 | 63 | 316 | 0.0 | 0.0 | 0.00 | 0.32 | 0.03 | 43 | 1009.0 |
| 20260905040058 | 63 | 317 | 0.0 | 0.0 | 0.00 | 0.32 | 0.03 | 42 | 1009.1 |
| 20260905034541 | 63 | 316 | 0.0 | 0.0 | 0.00 | 0.32 | 0.03 | 42 | 1009.0 |
| 20260905033041 | 63 | 316 | 0.0 | 0.0 | 0.00 | 0.32 | 0.03 | 42 | 1008.9 |
| 20260905031521 | 63 | 316 | 0.0 | 0.0 | 0.00 | 0.32 | 0.03 | 42 | 1008.9 |
| 20260905030020 | 64 | 316 | 0.0 | 0.0 | 0.00 | 0.32 | 0.03 | 43 | 1008.8 |
| 20260905024503 | 64 | 316 | 0.0 | 0.0 | 0.00 | 0.32 | 0.03 | 43 | 1008.7 |
| 20260905023003 | 63 | 316 | 0.0 | 0.0 | 0.00 | 0.32 | 0.03 | 42 | 1008.8 |
| 20260905021544 | 64 | 316 | 0.0 | 0.0 | 0.00 | 0.32 | 0.03 | 42 | 1008.7 |
| 20260905020042 | 64 | 316 | 0.0 | 0.0 | 0.00 | 0.32 | 0.03 | 41 | 1008.7 |
| 20260905014526 | 64 | 316 | 0.0 | 0.0 | 0.00 | 0.32 | 0.03 | 38 | 1008.8 |
| 20260905013025 | 64 | 316 | 0.0 | 0.0 | 0.00 | 0.32 | 0.03 | 37 | 1008.8 |
| 20260905011504 | 65 | 317 | 0.0 | 0.0 | 0.00 | 0.32 | 0.03 | 37 | 1008.9 |
| 20260905010005 | 65 | 317 | 0.0 | 0.0 | 0.00 | 0.32 | 0.03 | 36 | 1008.8 |
| 20260905004645 | 66 | 317 | 0.0 | 0.0 | 0.00 | 0.32 | 0.03 | 35 | 1008.9 |
| 20260905003044 | 67 | 317 | 0.0 | 0.0 | 0.00 | 0.32 | 0.03 | 35 | 1008.7 |
| 20260905001524 | 67 | 317 | 0.0 | 0.0 | 0.00 | 0.32 | 0.03 | 35 | 1008.6 |
| 20260905000022 | 68 | 317 | 0.0 | 0.0 | 0.00 | 0.32 | 0.03 | 43 | 1008.6 |
| 20260904234504 | 68 | 317 | 0.0 | 0.0 | 0.00 | 0.32 | 0.03 | 48 | 1008.4 |
| 20260904233003 | 69 | 317 | 0.0 | 0.0 | 0.00 | 0.32 | 0.03 | 54 | 1008.3 |
| 20260904231544 | 70 | 317 | 0.0 | 0.0 | 0.00 | 0.32 | 0.03 | 58 | 1008.3 |
| 20260904230045 | 71 | 316 | 0.0 | 0.0 | 0.00 | 0.32 | 0.03 | 63 | 1008.3 |
| 20260904224527 | 72 | 316 | 0.0 | 0.0 | 0.00 | 0.32 | 0.03 | 63 | 1008.4 |
| 20260904223024 | 73 | 316 | 0.0 | 0.0 | 0.00 | 0.32 | 0.03 | 61 | 1008.4 |
| 20260904221521 | 74 | 316 | 0.0 | 0.0 | 0.00 | 0.32 | 0.03 | 60 | 1008.3 |
| 20260904220007 | 75 | 316 | 0.0 | 0.0 | 0.00 | 0.32 | 0.03 | 59 | 1008.2 |
| 20260904214554 | 76 | 316 | 0.0 | 0.0 | 0.00 | 0.32 | 0.03 | 56 | 1008.2 |
| 20260904213053 | 77 | 316 | 0.0 | 2.0 | 0.00 | 0.32 | 0.03 | 54 | 1008.1 |
| 20260904211556 | 78 | 333 | 0.0 | 2.0 | 0.00 | 0.32 | 0.03 | 50 | 1008.2 |
| 20260904210058 | 78 | 216 | 0.0 | 4.0 | 0.00 | 0.32 | 0.03 | 51 | 1008.3 |
| 20260904204551 | 79 | 323 | 0.0 | 3.0 | 0.00 | 0.32 | 0.03 | 51 | 1008.3 |
| 20260904203051 | 78 | 267 | 0.0 | 3.0 | 0.00 | 0.32 | 0.03 | 51 | 1008.3 |
| 20260904201553 | 78 | 264 | 0.0 | 3.0 | 0.00 | 0.32 | 0.03 | 50 | 1008.4 |
| 20260904200111 | 77 | 228 | 0.0 | 3.0 | 0.00 | 0.32 | 0.03 | 50 | 1008.5 |
| 20260904194618 | 78 | 317 | 0.0 | 3.0 | 0.00 | 0.32 | 0.03 | 49 | 1008.4 |
| 20260904193039 | 78 | 281 | 0.0 | 1.0 | 0.00 | 0.32 | 0.03 | 52 | 1008.5 |
| 20260904191513 | 79 | 347 | 0.0 | 3.0 | 0.00 | 0.32 | 0.03 | 48 | 1008.7 |
| 20260904190013 | 80 | 351 | 0.0 | 7.0 | 0.00 | 0.32 | 0.03 | 46 | 1008.8 |
| 20260904184616 | 79 | 350 | 1.0 | 7.0 | 0.00 | 0.32 | 0.03 | 45 | 1008.8 |
| 20260904183053 | 79 | 199 | 1.0 | 5.0 | 0.00 | 0.32 | 0.03 | 45 | 1009.0 |
| 20260904181554 | 79 | 1 | 0.0 | 4.0 | 0.00 | 0.32 | 0.03 | 46 | 1008.9 |
| 20260904180039 | 79 | 222 | 2.0 | 4.0 | 0.00 | 0.32 | 0.03 | 45 | 1008.9 |